createdAt,value
2022-08-03T00:00:30.393Z,9.57
2022-08-03T00:02:57.276Z,13.57
2022-08-03T00:05:24.236Z,11.13
2022-08-03T00:07:51.063Z,8.45
2022-08-03T00:10:19.854Z,9.25
2022-08-03T00:12:46.786Z,9.10
2022-08-03T00:15:16.663Z,10.13
2022-08-03T00:17:53.626Z,9.82
2022-08-03T00:20:24.386Z,12.50
2022-08-03T00:22:52.475Z,9.55
2022-08-03T00:25:19.606Z,11.75
2022-08-03T00:27:48.397Z,11.13
2022-08-03T00:30:17.214Z,10.90
2022-08-03T00:32:45.275Z,10.95
2022-08-03T00:35:27.376Z,10.13
2022-08-03T00:37:59.885Z,12.55
2022-08-03T00:40:27.133Z,11.68
2022-08-03T00:42:56.528Z,12.10
2022-08-03T00:45:28.884Z,10.57
2022-08-03T00:47:56.286Z,9.43
2022-08-03T00:50:24.869Z,11.63
2022-08-03T00:52:54.020Z,10.95
2022-08-03T00:55:21.100Z,10.02
2022-08-03T00:57:48.586Z,9.57
2022-08-03T01:00:18.786Z,10.43
2022-08-03T01:02:46.400Z,9.77
2022-08-03T01:05:13.948Z,12.77
2022-08-03T01:07:40.715Z,9.52
2022-08-03T01:10:41.886Z,13.45
2022-08-03T01:14:03.800Z,9.68
2022-08-03T01:16:25.811Z,8.13
2022-08-03T01:19:25.562Z,10.27
2022-08-03T01:21:52.321Z,11.55
2022-08-03T01:24:32.135Z,9.93
2022-08-03T01:26:58.889Z,12.40
2022-08-03T01:30:07.930Z,11.80
2022-08-03T01:32:52.527Z,17.40
2022-08-03T01:35:47.065Z,11.38
2022-08-03T01:38:22.301Z,11.77
2022-08-03T01:40:52.270Z,11.50
2022-08-03T01:43:55.331Z,10.90
2022-08-03T01:46:11.565Z,13.00
2022-08-03T01:48:40.128Z,12.75
2022-08-03T01:51:09.530Z,12.40
2022-08-03T01:53:42.803Z,11.57
2022-08-03T01:56:10.608Z,13.13
2022-08-03T01:58:39.370Z,15.93
2022-08-03T02:01:06.953Z,10.13
2022-08-03T02:03:37.258Z,9.88
2022-08-03T02:07:01.755Z,9.98
2022-08-03T02:08:55.430Z,12.18
2022-08-03T02:11:22.651Z,10.63
2022-08-03T02:13:51.135Z,12.30
2022-08-03T02:16:19.084Z,12.10
2022-08-03T02:18:48.310Z,12.60
2022-08-03T02:21:48.246Z,14.40
2022-08-03T02:24:04.489Z,12.20
2022-08-03T02:26:32.088Z,12.18
2022-08-03T02:29:05.727Z,11.93
2022-08-03T02:31:37.025Z,10.95
2022-08-03T02:34:10.252Z,11.02
2022-08-03T02:36:39.697Z,10.02
2022-08-03T02:39:09.973Z,10.85
2022-08-03T02:41:50.247Z,14.93
2022-08-03T02:44:24.289Z,11.60
2022-08-03T02:46:55.970Z,12.07
2022-08-03T02:49:42.708Z,10.85
2022-08-03T02:52:15.764Z,10.95
2022-08-03T02:54:44.362Z,10.13
2022-08-03T02:57:12.494Z,13.43
2022-08-03T02:59:41.050Z,12.15
2022-08-03T03:02:09.468Z,11.55
2022-08-03T03:04:37.083Z,11.38
2022-08-03T03:07:04.522Z,10.23
2022-08-03T03:09:40.368Z,11.07
2022-08-03T03:12:10.437Z,10.00
2022-08-03T03:14:38.129Z,11.52
2022-08-03T03:17:07.175Z,11.35
2022-08-03T03:19:35.135Z,10.07
2022-08-03T03:22:03.782Z,13.32
2022-08-03T03:24:31.050Z,13.43
2022-08-03T03:26:58.860Z,10.90
2022-08-03T03:29:26.177Z,10.45
2022-08-03T03:31:54.189Z,13.35
2022-08-03T03:34:21.251Z,10.93
2022-08-03T03:36:48.271Z,10.57
2022-08-03T03:39:15.475Z,14.63
2022-08-03T03:41:43.789Z,11.52
2022-08-03T03:44:10.683Z,9.77
2022-08-03T03:46:38.897Z,12.65
2022-08-03T03:49:07.486Z,11.40
2022-08-03T03:51:34.838Z,10.23
2022-08-03T03:54:05.836Z,13.30
2022-08-03T03:56:32.895Z,9.63
2022-08-03T03:59:01.116Z,11.63
2022-08-03T04:01:28.709Z,11.52
2022-08-03T04:03:55.622Z,11.80
2022-08-03T04:06:40.897Z,10.75
2022-08-03T04:09:29.314Z,11.75
2022-08-03T04:12:01.184Z,14.70
2022-08-03T04:14:35.196Z,9.15
2022-08-03T04:17:04.172Z,10.32
2022-08-03T04:19:35.892Z,15.93
2022-08-03T04:22:09.859Z,9.82
2022-08-03T04:24:53.682Z,10.68
2022-08-03T04:27:27.424Z,13.20
2022-08-03T04:29:57.020Z,10.43
2022-08-03T04:32:28.667Z,9.57
2022-08-03T04:34:56.083Z,11.52
2022-08-03T04:37:47.899Z,8.75
2022-08-03T04:40:25.377Z,9.75
2022-08-03T04:42:58.631Z,10.85
2022-08-03T04:45:27.245Z,13.68
2022-08-03T04:47:55.095Z,9.50
2022-08-03T04:50:22.856Z,13.45
2022-08-03T04:53:05.242Z,11.88
2022-08-03T04:55:33.550Z,9.75
2022-08-03T04:58:02.352Z,13.02
2022-08-03T05:00:30.122Z,11.55
2022-08-03T05:02:57.011Z,9.52
2022-08-03T05:05:24.039Z,11.15
2022-08-03T05:07:51.128Z,9.13
2022-08-03T05:10:18.366Z,8.55
2022-08-03T05:12:47.653Z,11.15
2022-08-03T05:15:14.870Z,9.13
2022-08-03T05:17:42.020Z,13.48
2022-08-03T05:20:10.054Z,9.45
2022-08-03T05:22:36.925Z,10.27
2022-08-03T05:25:03.972Z,10.77
2022-08-03T05:27:31.021Z,11.15
2022-08-03T05:30:30.620Z,11.52
2022-08-03T05:32:44.846Z,10.07
2022-08-03T05:35:57.302Z,10.52
2022-08-03T05:37:58.489Z,13.18
2022-08-03T05:40:25.328Z,9.25
2022-08-03T05:42:53.807Z,9.05
2022-08-03T05:45:23.202Z,11.30
2022-08-03T05:47:53.750Z,15.32
2022-08-03T05:50:21.239Z,10.30
2022-08-03T05:52:48.140Z,10.70
2022-08-03T05:55:15.415Z,8.73
2022-08-03T05:57:42.542Z,10.95
2022-08-03T06:00:12.222Z,8.88
2022-08-03T06:02:39.958Z,12.60
2022-08-03T06:05:07.346Z,10.48
2022-08-03T06:07:34.547Z,11.68
2022-08-03T06:10:37.577Z,7.80
2022-08-03T06:12:51.325Z,9.48
2022-08-03T06:15:20.495Z,12.50
2022-08-03T06:17:52.224Z,14.85
2022-08-03T06:20:21.200Z,13.13
2022-08-03T06:22:51.404Z,11.68
2022-08-03T06:25:27.432Z,11.75
2022-08-03T06:27:54.255Z,9.10
2022-08-03T06:30:21.596Z,8.43
2022-08-03T06:32:51.703Z,12.60
2022-08-03T06:35:20.171Z,10.35
2022-08-03T06:37:51.254Z,10.25
2022-08-03T06:40:24.308Z,11.35
2022-08-03T06:42:51.637Z,11.38
2022-08-03T06:45:18.663Z,12.32
2022-08-03T06:47:45.701Z,10.40
2022-08-03T06:50:16.245Z,8.43
2022-08-03T06:52:45.369Z,10.55
2022-08-03T06:55:12.369Z,10.23
2022-08-03T06:57:39.173Z,12.35
2022-08-03T07:00:11.917Z,7.70
2022-08-03T07:02:40.017Z,12.40
2022-08-03T07:05:08.602Z,11.40
2022-08-03T07:07:35.864Z,8.73
2022-08-03T07:10:03.457Z,11.00
2022-08-03T07:12:31.086Z,8.90
2022-08-03T07:15:01.856Z,14.43
2022-08-03T07:17:31.060Z,10.80
2022-08-03T07:20:01.590Z,10.25
2022-08-03T07:22:29.101Z,11.70
2022-08-03T07:24:56.632Z,9.98
2022-08-03T07:27:23.633Z,8.77
2022-08-03T07:29:50.735Z,11.05
2022-08-03T07:32:17.876Z,10.55
2022-08-03T07:34:45.082Z,11.18
2022-08-03T07:37:11.976Z,8.73
2022-08-03T07:39:38.827Z,11.23
2022-08-03T07:42:05.726Z,10.75
2022-08-03T07:44:32.609Z,11.23
2022-08-03T07:47:00.030Z,9.98
2022-08-03T07:49:30.532Z,10.50
2022-08-03T07:52:16.277Z,14.00
2022-08-03T07:54:43.746Z,13.00
2022-08-03T07:57:10.584Z,8.63
2022-08-03T07:59:56.747Z,12.48
2022-08-03T08:02:24.152Z,14.43
2022-08-03T08:04:51.224Z,10.77
2022-08-03T08:07:18.572Z,10.05
2022-08-03T08:09:47.804Z,9.85
2022-08-03T08:12:15.148Z,9.63
2022-08-03T08:14:45.807Z,12.68
2022-08-03T08:17:13.392Z,10.73
2022-08-03T08:19:41.475Z,10.57
2022-08-03T08:22:23.495Z,11.63
2022-08-03T08:25:01.226Z,11.98
2022-08-03T08:28:31.035Z,10.00
2022-08-03T08:30:22.388Z,10.70
2022-08-03T08:32:50.254Z,14.50
2022-08-03T08:35:18.163Z,10.88
2022-08-03T08:37:51.082Z,11.68
2022-08-03T08:40:21.211Z,9.80
2022-08-03T08:42:57.932Z,8.38
2022-08-03T08:45:25.921Z,8.63
2022-08-03T08:48:00.860Z,14.45
2022-08-03T08:50:30.075Z,12.60
2022-08-03T08:53:00.895Z,10.50
2022-08-03T08:55:27.874Z,11.73
2022-08-03T08:58:02.289Z,12.75
2022-08-03T09:00:30.863Z,10.35
2022-08-03T09:02:58.190Z,11.45
2022-08-03T09:05:54.670Z,11.48
2022-08-03T09:08:13.327Z,15.13
2022-08-03T09:10:40.321Z,11.18
2022-08-03T09:13:08.598Z,11.63
2022-08-03T09:15:35.699Z,10.63
2022-08-03T09:18:04.245Z,11.77
2022-08-03T09:20:34.214Z,12.15
2022-08-03T09:23:09.712Z,11.73
2022-08-03T09:25:59.966Z,15.93
2022-08-03T09:29:00.844Z,12.27
2022-08-03T09:31:33.407Z,11.68
2022-08-03T09:34:08.489Z,12.50
2022-08-03T09:36:38.354Z,14.30
2022-08-03T09:39:07.621Z,18.60
2022-08-03T09:41:34.566Z,10.88
2022-08-03T09:44:01.432Z,14.77
2022-08-03T09:46:31.826Z,14.45
2022-08-03T09:49:12.175Z,12.18
2022-08-03T09:52:31.737Z,13.20
2022-08-03T09:54:28.397Z,14.90
2022-08-03T09:56:56.070Z,12.63
2022-08-03T09:59:28.719Z,12.70
2022-08-03T10:01:57.602Z,13.00
2022-08-03T10:04:24.926Z,12.98
2022-08-03T10:07:09.246Z,13.55
2022-08-03T10:09:36.839Z,12.35
2022-08-03T10:12:12.607Z,12.57
2022-08-03T10:14:41.865Z,13.02
2022-08-03T10:17:09.865Z,13.57
2022-08-03T10:19:36.776Z,15.25
2022-08-03T10:22:08.258Z,12.85
2022-08-03T10:24:38.630Z,14.52
2022-08-03T10:27:11.473Z,13.13
2022-08-03T10:29:41.273Z,14.65
2022-08-03T10:32:15.119Z,14.77
2022-08-03T10:34:44.727Z,14.35
2022-08-03T10:37:15.375Z,15.00
2022-08-03T10:39:53.466Z,17.17
2022-08-03T10:42:26.293Z,15.82
2022-08-03T10:45:04.998Z,17.77
2022-08-03T10:47:32.302Z,15.70
2022-08-03T10:49:59.991Z,17.73
2022-08-03T10:52:35.102Z,17.05
2022-08-03T10:55:52.807Z,17.70
2022-08-03T10:58:38.057Z,18.67
2022-08-03T11:02:02.720Z,17.90
2022-08-03T11:04:30.480Z,18.25
2022-08-03T11:07:25.565Z,19.83
2022-08-03T11:09:56.549Z,19.80
2022-08-03T11:12:32.124Z,19.88
2022-08-03T11:15:05.626Z,18.88
2022-08-03T11:17:46.285Z,19.15
2022-08-03T11:20:47.311Z,18.98
2022-08-03T11:23:15.795Z,20.20
2022-08-03T11:26:11.793Z,21.67
2022-08-03T11:28:40.030Z,19.48
2022-08-03T11:31:46.747Z,18.85
2022-08-03T11:34:12.021Z,18.83
2022-08-03T11:37:16.763Z,19.92
2022-08-03T11:39:48.901Z,19.25
2022-08-03T11:42:24.744Z,20.08
2022-08-03T11:44:59.698Z,19.50
2022-08-03T11:47:29.121Z,18.52
2022-08-03T11:50:00.366Z,18.90
2022-08-03T11:52:33.834Z,19.17
2022-08-03T11:55:01.167Z,19.48
2022-08-03T11:59:10.816Z,19.83
2022-08-03T12:00:22.776Z,19.33
2022-08-03T12:03:05.550Z,24.00
2022-08-03T12:05:52.717Z,21.08
2022-08-03T12:08:32.333Z,19.65
2022-08-03T12:11:01.585Z,20.40
2022-08-03T12:14:45.265Z,20.98
2022-08-03T12:16:25.658Z,24.02
2022-08-03T12:19:10.789Z,20.13
2022-08-03T12:21:57.231Z,20.30
2022-08-03T12:24:24.503Z,20.63
2022-08-03T12:26:58.362Z,20.05
2022-08-03T12:29:27.679Z,19.70
2022-08-03T12:31:56.137Z,19.63
2022-08-03T12:34:23.363Z,19.73
2022-08-03T12:36:59.213Z,21.77
2022-08-03T12:39:30.913Z,19.77
2022-08-03T12:41:58.137Z,18.95
2022-08-03T12:44:34.605Z,20.60
2022-08-03T12:47:03.168Z,21.15
2022-08-03T12:49:46.963Z,19.08
2022-08-03T12:52:14.505Z,22.25
2022-08-03T12:54:41.911Z,19.95
2022-08-03T12:57:15.799Z,21.92
2022-08-03T12:59:52.653Z,21.42
2022-08-03T13:02:24.077Z,21.92
2022-08-03T13:04:53.953Z,21.08
2022-08-03T13:07:22.085Z,19.25
2022-08-03T13:09:50.689Z,22.75
2022-08-03T13:12:20.979Z,19.45
2022-08-03T13:14:50.838Z,20.83
2022-08-03T13:17:18.676Z,18.65
2022-08-03T13:19:46.463Z,26.20
2022-08-03T13:22:18.892Z,18.70
2022-08-03T13:24:47.529Z,20.63
2022-08-03T13:28:03.803Z,23.52
2022-08-03T13:30:01.725Z,19.33
2022-08-03T13:32:28.852Z,23.25
2022-08-03T13:34:55.754Z,19.02
2022-08-03T13:37:23.031Z,19.20
2022-08-03T13:39:59.692Z,18.73
2022-08-03T13:42:29.548Z,19.17
2022-08-03T13:44:56.486Z,17.98
2022-08-03T13:47:23.413Z,22.42
2022-08-03T13:49:59.886Z,26.40
2022-08-03T13:52:28.284Z,21.38
2022-08-03T13:54:55.353Z,20.20
2022-08-03T13:58:18.989Z,24.00
2022-08-03T14:00:09.956Z,21.50
2022-08-03T14:02:37.187Z,22.13
2022-08-03T14:05:04.340Z,19.35
2022-08-03T14:07:31.425Z,17.33
2022-08-03T14:09:58.381Z,18.50
2022-08-03T14:12:25.264Z,16.02
2022-08-03T14:14:52.197Z,16.27
2022-08-03T14:17:19.819Z,19.83
2022-08-03T14:19:53.343Z,17.42
2022-08-03T14:22:21.587Z,20.45
2022-08-03T14:24:49.152Z,17.50
2022-08-03T14:27:17.036Z,18.83
2022-08-03T14:29:43.927Z,16.42
2022-08-03T14:32:13.062Z,16.70
2022-08-03T14:34:40.900Z,15.85
2022-08-03T14:37:08.232Z,16.25
2022-08-03T14:42:22.039Z,15.93
2022-08-03T14:44:48.945Z,18.10
2022-08-03T14:47:15.801Z,15.30
2022-08-03T14:50:37.475Z,20.20
2022-08-03T14:52:31.027Z,20.40
2022-08-03T14:54:58.795Z,18.02
2022-08-03T14:57:26.338Z,16.23
2022-08-03T14:59:55.561Z,18.63
2022-08-03T15:02:25.042Z,15.18
2022-08-03T15:04:52.608Z,19.25
2022-08-03T15:07:20.691Z,19.05
2022-08-03T15:09:48.088Z,14.77
2022-08-03T15:12:15.055Z,16.65
2022-08-03T15:14:41.955Z,19.40
2022-08-03T15:17:08.871Z,17.63
2022-08-03T15:20:01.029Z,15.70
2022-08-03T15:22:25.227Z,15.98
2022-08-03T15:25:03.497Z,19.30
2022-08-03T15:27:30.919Z,15.90
2022-08-03T15:30:07.153Z,17.38
2022-08-03T15:32:37.045Z,21.90
2022-08-03T15:35:04.373Z,16.77
2022-08-03T15:37:31.240Z,18.27
2022-08-03T15:40:00.409Z,17.20
2022-08-03T15:42:29.649Z,15.70
2022-08-03T15:44:56.651Z,18.35
2022-08-03T15:47:23.633Z,21.95
2022-08-03T15:49:50.484Z,18.85
2022-08-03T15:52:17.470Z,21.27
2022-08-03T15:54:44.393Z,17.83
2022-08-03T15:57:11.268Z,15.73
2022-08-03T15:59:38.173Z,15.55
2022-08-03T16:02:05.017Z,17.48
2022-08-03T16:04:31.804Z,18.20
2022-08-03T16:06:58.594Z,18.55
2022-08-03T16:09:42.717Z,19.90
2022-08-03T16:12:14.521Z,24.20
2022-08-03T16:14:51.841Z,18.80
2022-08-03T16:17:20.194Z,18.70
2022-08-03T16:19:47.226Z,19.55
2022-08-03T16:22:14.499Z,19.58
2022-08-03T16:24:41.586Z,19.00
2022-08-03T16:27:37.189Z,18.67
2022-08-03T16:29:55.533Z,16.17
2022-08-03T16:32:22.405Z,17.15
2022-08-03T16:34:49.250Z,19.30
2022-08-03T16:37:37.493Z,15.45
2022-08-03T16:40:05.414Z,17.63
2022-08-03T16:42:35.006Z,18.15
2022-08-03T16:45:02.397Z,16.00
2022-08-03T16:47:31.730Z,20.35
2022-08-03T16:50:00.451Z,18.70
2022-08-03T16:52:27.585Z,18.63
2022-08-03T16:54:54.975Z,19.52
2022-08-03T16:57:55.831Z,21.23
2022-08-03T17:00:11.789Z,18.27
2022-08-03T17:02:48.156Z,24.83
2022-08-03T17:05:15.468Z,17.35
2022-08-03T17:07:50.545Z,20.55
2022-08-03T17:10:22.017Z,21.30
2022-08-03T17:12:54.481Z,21.10
2022-08-03T17:15:38.448Z,19.23
2022-08-03T17:18:15.265Z,22.15
2022-08-03T17:20:46.754Z,21.67
2022-08-03T17:23:35.295Z,19.42
2022-08-03T17:26:08.949Z,21.48
2022-08-03T17:28:51.563Z,20.52
2022-08-03T17:31:31.344Z,19.13
2022-08-03T17:34:01.407Z,22.40
2022-08-03T17:36:47.619Z,20.30
2022-08-03T17:39:23.545Z,17.50
2022-08-03T17:42:00.907Z,20.80
2022-08-03T17:44:41.485Z,15.57
2022-08-03T17:47:13.120Z,18.80
2022-08-03T17:49:46.550Z,18.83
2022-08-03T17:52:35.471Z,16.08
2022-08-03T17:55:55.169Z,16.63
2022-08-03T17:58:11.685Z,18.75
2022-08-03T18:01:03.800Z,15.85
2022-08-03T18:03:59.249Z,17.30
2022-08-03T18:06:31.276Z,20.02
2022-08-03T18:08:59.983Z,19.45
2022-08-03T18:11:35.722Z,22.42
2022-08-03T18:14:17.258Z,21.88
2022-08-03T18:16:47.946Z,19.52
2022-08-03T18:19:14.960Z,16.98
2022-08-03T18:22:03.614Z,18.05
2022-08-03T18:24:30.658Z,18.88
2022-08-03T18:26:59.812Z,22.20
2022-08-03T18:29:35.493Z,17.98
2022-08-03T18:32:12.956Z,19.80
2022-08-03T18:34:53.652Z,21.92
2022-08-03T18:37:25.495Z,25.45
2022-08-03T18:39:57.876Z,22.35
2022-08-03T18:42:26.813Z,24.05
2022-08-03T18:44:56.288Z,22.80
2022-08-03T18:47:52.171Z,23.02
2022-08-03T18:50:34.170Z,24.70
2022-08-03T18:53:19.674Z,21.25
2022-08-03T18:56:02.391Z,21.55
2022-08-03T18:58:48.656Z,18.90
2022-08-03T19:02:00.108Z,21.02
2022-08-03T19:04:20.267Z,24.42
2022-08-03T19:06:58.923Z,26.73
2022-08-03T19:09:46.853Z,33.42
2022-08-03T19:12:30.726Z,27.85
2022-08-03T19:15:03.701Z,31.05
2022-08-03T19:17:38.574Z,23.42
2022-08-03T19:20:08.970Z,25.05
2022-08-03T19:22:39.855Z,20.63
2022-08-03T19:25:12.914Z,17.83
2022-08-03T19:27:43.490Z,22.92
2022-08-03T19:33:02.291Z,24.15
2022-08-03T19:35:46.973Z,20.38
2022-08-03T19:38:28.622Z,19.58
2022-08-03T19:41:00.947Z,21.27
2022-08-03T19:43:52.626Z,20.45
2022-08-03T19:46:30.084Z,22.40
2022-08-03T19:49:10.293Z,20.55
2022-08-03T19:52:00.863Z,24.63
2022-08-03T19:57:23.020Z,20.10
2022-08-03T19:59:52.490Z,18.25
2022-08-03T20:02:25.713Z,19.90
2022-08-03T20:04:59.582Z,23.50
2022-08-03T20:07:29.086Z,21.15
2022-08-03T20:09:59.631Z,20.48
2022-08-03T20:12:34.302Z,21.38
2022-08-03T20:15:06.563Z,22.40
2022-08-03T20:17:55.923Z,23.20
2022-08-03T20:20:23.496Z,23.65
2022-08-03T20:22:57.759Z,24.52
2022-08-03T20:25:38.869Z,21.45
2022-08-03T20:28:26.773Z,26.85
2022-08-03T20:30:54.113Z,23.60
2022-08-03T20:33:27.792Z,24.90
2022-08-03T20:36:05.110Z,21.33
2022-08-03T20:38:33.088Z,27.17
2022-08-03T20:41:10.737Z,23.30
2022-08-03T20:43:37.659Z,26.90
2022-08-03T20:46:31.781Z,22.85
2022-08-03T20:48:51.812Z,23.65
2022-08-03T20:51:20.079Z,22.92
2022-08-03T20:54:01.780Z,22.08
2022-08-03T20:56:35.920Z,22.65
2022-08-03T20:59:07.168Z,23.63
2022-08-03T21:01:41.922Z,25.95
2022-08-03T21:04:11.333Z,23.83
2022-08-03T21:06:54.192Z,18.60
2022-08-03T21:09:39.792Z,21.70
2022-08-03T21:12:23.936Z,22.98
2022-08-03T21:13:02.301Z,21.30
2022-08-03T21:13:10.762Z,20.58
2022-08-03T21:15:03.113Z,22.20
2022-08-03T21:17:41.612Z,21.52
2022-08-03T21:20:11.442Z,23.60
2022-08-03T21:22:42.502Z,25.45
2022-08-03T21:25:10.415Z,20.60
2022-08-03T21:27:37.750Z,19.23
2022-08-03T21:30:09.320Z,21.45
2022-08-03T21:32:40.160Z,18.85
2022-08-03T21:35:09.915Z,17.27
2022-08-03T21:37:38.009Z,22.85
2022-08-03T21:40:05.421Z,19.00
2022-08-03T21:42:32.293Z,22.27
2022-08-03T21:44:59.146Z,23.15
2022-08-03T21:47:26.538Z,19.10
2022-08-03T21:50:06.319Z,20.25
2022-08-03T21:52:41.925Z,22.20
2022-08-03T21:55:18.307Z,23.45
2022-08-03T21:57:53.550Z,20.30
2022-08-03T22:00:23.080Z,25.10
2022-08-03T22:02:56.074Z,22.48
2022-08-03T22:05:42.393Z,22.05
2022-08-03T22:08:13.670Z,22.75
2022-08-03T22:10:43.497Z,22.80
2022-08-03T22:13:15.010Z,21.75
2022-08-03T22:15:42.041Z,18.60
2022-08-03T22:18:09.050Z,23.35
2022-08-03T22:20:36.283Z,24.15
2022-08-03T22:23:05.717Z,23.90
2022-08-03T22:25:35.954Z,19.48
2022-08-03T22:28:10.837Z,22.42
2022-08-03T22:30:38.552Z,19.35
2022-08-03T22:33:11.239Z,25.02
2022-08-03T22:35:49.027Z,23.50
2022-08-03T22:38:17.635Z,26.13
2022-08-03T22:40:46.988Z,26.88
2022-08-03T22:43:14.093Z,22.95
2022-08-03T22:46:09.130Z,23.42
2022-08-03T22:48:34.396Z,22.67
2022-08-03T22:51:03.492Z,23.35
2022-08-03T22:53:30.721Z,23.17
2022-08-03T22:55:57.903Z,30.67
2022-08-03T22:58:25.237Z,29.95
2022-08-03T23:00:55.592Z,21.45
2022-08-03T23:03:58.843Z,22.95
2022-08-03T23:06:21.626Z,23.58
2022-08-03T23:08:50.382Z,18.83
2022-08-03T23:11:18.808Z,20.35
2022-08-03T23:13:52.231Z,20.10
2022-08-03T23:16:29.046Z,21.20
2022-08-03T23:18:58.876Z,21.05
2022-08-03T23:21:53.971Z,20.23
2022-08-03T23:24:29.122Z,20.40
2022-08-03T23:26:57.697Z,19.20
2022-08-03T23:29:26.188Z,21.38
2022-08-03T23:31:53.949Z,21.15
2022-08-03T23:34:40.428Z,20.42
2022-08-03T23:37:07.741Z,17.80
2022-08-03T23:39:38.848Z,21.27
2022-08-03T23:42:06.202Z,21.83
2022-08-03T23:44:36.796Z,22.40
2022-08-03T23:47:03.971Z,21.52
2022-08-03T23:49:31.163Z,20.05
2022-08-03T23:52:09.258Z,24.42
2022-08-03T23:55:07.132Z,19.15
2022-08-03T23:57:51.509Z,17.90
